sensor_id;sensor_type;location;lat;lon;timestamp;pressure;altitude;pressure_sealevel;temperature;humidity
18900;BME280;9582;52.018;6.306;2023-05-07T00:00:07;103992.41;;;14.27;100.00
18900;BME280;9582;52.018;6.306;2023-05-07T00:02:34;104002.06;;;14.28;100.00
18900;BME280;9582;52.018;6.306;2023-05-07T00:05:02;104009.91;;;14.31;100.00
18900;BME280;9582;52.018;6.306;2023-05-07T00:07:29;104017.84;;;14.32;100.00
18900;BME280;9582;52.018;6.306;2023-05-07T00:09:55;104025.72;;;14.34;100.00
18900;BME280;9582;52.018;6.306;2023-05-07T00:12:22;104036.25;;;14.35;100.00
18900;BME280;9582;52.018;6.306;2023-05-07T00:14:48;104038.00;;;14.35;100.00
18900;BME280;9582;52.018;6.306;2023-05-07T00:17:15;104047.66;;;14.36;100.00
18900;BME280;9582;52.018;6.306;2023-05-07T00:19:41;104057.31;;;14.35;100.00
18900;BME280;9582;52.018;6.306;2023-05-07T00:22:09;104060.81;;;14.37;100.00
18900;BME280;9582;52.018;6.306;2023-05-07T00:24:35;104068.72;;;14.36;100.00
18900;BME280;9582;52.018;6.306;2023-05-07T00:27:02;104066.09;;;14.36;100.00
18900;BME280;9582;52.018;6.306;2023-05-07T00:29:28;104069.59;;;14.36;100.00
18900;BME280;9582;52.018;6.306;2023-05-07T00:31:55;104065.22;;;14.34;100.00
18900;BME280;9582;52.018;6.306;2023-05-07T00:34:21;104059.97;;;14.32;100.00
18900;BME280;9582;52.018;6.306;2023-05-07T00:36:48;104059.09;;;14.33;100.00
18900;BME280;9582;52.018;6.306;2023-05-07T00:39:16;104062.56;;;14.34;100.00
18900;BME280;9582;52.018;6.306;2023-05-07T00:41:43;104055.56;;;14.34;100.00
18900;BME280;9582;52.018;6.306;2023-05-07T00:44:10;104045.94;;;14.30;100.00
18900;BME280;9582;52.018;6.306;2023-05-07T00:46:37;104043.31;;;14.26;100.00
18900;BME280;9582;52.018;6.306;2023-05-07T00:49:04;104037.19;;;14.24;100.00
18900;BME280;9582;52.018;6.306;2023-05-07T00:51:31;104035.47;;;14.21;100.00
18900;BME280;9582;52.018;6.306;2023-05-07T00:54:00;104031.09;;;14.17;100.00
18900;BME280;9582;52.018;6.306;2023-05-07T00:56:29;104029.38;;;14.15;100.00
18900;BME280;9582;52.018;6.306;2023-05-07T00:58:56;104004.84;;;14.11;100.00
18900;BME280;9582;52.018;6.306;2023-05-07T01:01:22;104001.38;;;14.06;100.00
18900;BME280;9582;52.018;6.306;2023-05-07T01:03:49;103986.53;;;14.02;100.00
18900;BME280;9582;52.018;6.306;2023-05-07T01:06:15;103983.91;;;13.99;100.00
18900;BME280;9582;52.018;6.306;2023-05-07T01:08:43;103980.47;;;13.94;100.00
18900;BME280;9582;52.018;6.306;2023-05-07T01:11:11;103962.94;;;13.90;100.00
18900;BME280;9582;52.018;6.306;2023-05-07T01:13:39;103955.09;;;13.85;100.00
18900;BME280;9582;52.018;6.306;2023-05-07T01:16:08;103950.75;;;13.80;100.00
18900;BME280;9582;52.018;6.306;2023-05-07T01:18:35;103942.03;;;13.73;100.00
18900;BME280;9582;52.018;6.306;2023-05-07T01:21:04;103943.81;;;13.71;100.00
18900;BME280;9582;52.018;6.306;2023-05-07T01:23:33;103937.69;;;13.66;100.00
18900;BME280;9582;52.018;6.306;2023-05-07T01:26:00;103932.50;;;13.59;100.00
18900;BME280;9582;52.018;6.306;2023-05-07T01:28:29;103915.06;;;13.52;100.00
18900;BME280;9582;52.018;6.306;2023-05-07T01:31:01;103917.69;;;13.52;100.00
18900;BME280;9582;52.018;6.306;2023-05-07T01:33:30;103904.56;;;13.44;100.00
18900;BME280;9582;52.018;6.306;2023-05-07T01:35:58;103909.94;;;13.32;100.00
18900;BME280;9582;52.018;6.306;2023-05-07T01:38:28;103891.59;;;13.26;100.00
18900;BME280;9582;52.018;6.306;2023-05-07T01:40:57;103893.34;;;13.25;100.00
18900;BME280;9582;52.018;6.306;2023-05-07T01:43:24;103889.81;;;13.25;100.00
18900;BME280;9582;52.018;6.306;2023-05-07T01:45:52;103897.75;;;13.20;100.00
18900;BME280;9582;52.018;6.306;2023-05-07T01:48:19;103892.50;;;13.19;100.00
18900;BME280;9582;52.018;6.306;2023-05-07T01:50:46;103889.00;;;13.17;100.00
18900;BME280;9582;52.018;6.306;2023-05-07T01:53:13;103892.53;;;13.17;100.00
18900;BME280;9582;52.018;6.306;2023-05-07T01:55:40;103900.38;;;13.19;100.00
18900;BME280;9582;52.018;6.306;2023-05-07T01:58:08;103899.50;;;13.20;100.00
18900;BME280;9582;52.018;6.306;2023-05-07T02:00:35;103905.66;;;13.20;100.00
18900;BME280;9582;52.018;6.306;2023-05-07T02:03:04;103904.78;;;13.17;100.00
18900;BME280;9582;52.018;6.306;2023-05-07T02:05:39;103923.19;;;13.17;100.00
18900;BME280;9582;52.018;6.306;2023-05-07T02:08:15;103931.06;;;13.15;100.00
18900;BME280;9582;52.018;6.306;2023-05-07T02:10:41;103948.56;;;13.16;100.00
18900;BME280;9582;52.018;6.306;2023-05-07T02:13:10;103968.69;;;13.19;100.00
18900;BME280;9582;52.018;6.306;2023-05-07T02:15:36;103975.72;;;13.18;100.00
18900;BME280;9582;52.018;6.306;2023-05-07T02:18:05;103990.59;;;13.21;100.00
18900;BME280;9582;52.018;6.306;2023-05-07T02:20:32;103999.34;;;13.23;100.00
18900;BME280;9582;52.018;6.306;2023-05-07T02:22:58;104016.88;;;13.21;100.00
18900;BME280;9582;52.018;6.306;2023-05-07T02:25:27;104030.91;;;13.20;100.00
18900;BME280;9582;52.018;6.306;2023-05-07T02:27:54;104047.53;;;13.19;100.00
18900;BME280;9582;52.018;6.306;2023-05-07T02:30:27;104068.56;;;13.19;100.00
18900;BME280;9582;52.018;6.306;2023-05-07T02:32:56;104089.63;;;13.17;100.00
18900;BME280;9582;52.018;6.306;2023-05-07T02:35:23;104102.75;;;13.16;100.00
18900;BME280;9582;52.018;6.306;2023-05-07T02:37:50;104103.63;;;13.15;100.00
18900;BME280;9582;52.018;6.306;2023-05-07T02:40:18;104110.66;;;13.11;100.00
18900;BME280;9582;52.018;6.306;2023-05-07T02:42:44;104121.16;;;13.10;100.00
18900;BME280;9582;52.018;6.306;2023-05-07T02:45:11;104129.00;;;13.07;100.00
18900;BME280;9582;52.018;6.306;2023-05-07T02:47:39;104143.94;;;13.08;100.00
18900;BME280;9582;52.018;6.306;2023-05-07T02:50:07;104150.03;;;13.07;100.00
18900;BME280;9582;52.018;6.306;2023-05-07T02:52:33;104157.91;;;13.07;100.00
18900;BME280;9582;52.018;6.306;2023-05-07T02:55:00;104168.44;;;13.05;100.00
18900;BME280;9582;52.018;6.306;2023-05-07T02:57:27;104185.97;;;13.03;100.00
18900;BME280;9582;52.018;6.306;2023-05-07T02:59:54;104213.13;;;13.04;100.00
18900;BME280;9582;52.018;6.306;2023-05-07T03:02:21;104225.38;;;13.02;100.00
18900;BME280;9582;52.018;6.306;2023-05-07T03:04:49;104239.41;;;13.01;100.00
18900;BME280;9582;52.018;6.306;2023-05-07T03:07:17;104259.53;;;12.99;100.00
18900;BME280;9582;52.018;6.306;2023-05-07T03:09:43;104271.78;;;12.97;100.00
18900;BME280;9582;52.018;6.306;2023-05-07T03:12:10;104283.19;;;12.97;100.00
18900;BME280;9582;52.018;6.306;2023-05-07T03:14:37;104290.19;;;12.97;100.00
18900;BME280;9582;52.018;6.306;2023-05-07T03:17:03;104310.31;;;12.95;100.00
18900;BME280;9582;52.018;6.306;2023-05-07T03:19:30;104324.34;;;12.92;100.00
18900;BME280;9582;52.018;6.306;2023-05-07T03:21:58;104330.47;;;12.90;100.00
18900;BME280;9582;52.018;6.306;2023-05-07T03:24:25;104341.84;;;12.89;100.00
18900;BME280;9582;52.018;6.306;2023-05-07T03:26:51;104349.72;;;12.84;100.00
18900;BME280;9582;52.018;6.306;2023-05-07T03:29:18;104357.59;;;12.83;100.00
18900;BME280;9582;52.018;6.306;2023-05-07T03:31:44;104362.84;;;12.78;100.00
18900;BME280;9582;52.018;6.306;2023-05-07T03:34:11;104373.31;;;12.77;100.00
18900;BME280;9582;52.018;6.306;2023-05-07T03:36:38;104367.19;;;12.74;100.00
18900;BME280;9582;52.018;6.306;2023-05-07T03:39:11;104373.31;;;12.73;100.00
18900;BME280;9582;52.018;6.306;2023-05-07T03:41:39;104381.19;;;12.73;100.00
18900;BME280;9582;52.018;6.306;2023-05-07T03:44:06;104397.84;;;12.74;100.00
18900;BME280;9582;52.018;6.306;2023-05-07T03:46:33;104395.22;;;12.76;100.00
18900;BME280;9582;52.018;6.306;2023-05-07T03:49:00;104418.84;;;12.77;100.00
18900;BME280;9582;52.018;6.306;2023-05-07T03:51:27;104440.75;;;12.79;100.00
18900;BME280;9582;52.018;6.306;2023-05-07T03:53:54;104455.63;;;12.77;100.00
18900;BME280;9582;52.018;6.306;2023-05-07T03:56:24;104460.03;;;12.78;100.00
18900;BME280;9582;52.018;6.306;2023-05-07T03:58:54;104473.16;;;12.78;100.00
18900;BME280;9582;52.018;6.306;2023-05-07T04:01:20;104480.16;;;12.78;100.00
18900;BME280;9582;52.018;6.306;2023-05-07T04:03:47;104494.16;;;12.80;100.00
18900;BME280;9582;52.018;6.306;2023-05-07T04:06:15;104503.81;;;12.81;100.00
18900;BME280;9582;52.018;6.306;2023-05-07T04:08:44;104512.56;;;12.78;100.00
18900;BME280;9582;52.018;6.306;2023-05-07T04:11:10;104522.19;;;12.78;100.00
18900;BME280;9582;52.018;6.306;2023-05-07T04:13:38;104529.19;;;12.80;100.00
18900;BME280;9582;52.018;6.306;2023-05-07T04:16:07;104532.69;;;12.81;100.00
18900;BME280;9582;52.018;6.306;2023-05-07T04:18:35;104534.44;;;12.82;100.00
18900;BME280;9582;52.018;6.306;2023-05-07T04:21:03;104538.84;;;12.83;100.00
18900;BME280;9582;52.018;6.306;2023-05-07T04:23:30;104538.84;;;12.86;100.00
18900;BME280;9582;52.018;6.306;2023-05-07T04:26:00;104544.09;;;12.87;100.00
18900;BME280;9582;52.018;6.306;2023-05-07T04:28:33;104549.38;;;12.90;100.00
18900;BME280;9582;52.018;6.306;2023-05-07T04:31:02;104556.41;;;12.94;100.00
18900;BME280;9582;52.018;6.306;2023-05-07T04:33:30;104561.66;;;12.96;100.00
18900;BME280;9582;52.018;6.306;2023-05-07T04:35:58;104555.53;;;12.98;100.00
18900;BME280;9582;52.018;6.306;2023-05-07T04:38:28;104555.56;;;13.00;100.00
18900;BME280;9582;52.018;6.306;2023-05-07T04:40:55;104551.19;;;13.02;100.00
18900;BME280;9582;52.018;6.306;2023-05-07T04:43:25;104552.06;;;13.02;100.00
18900;BME280;9582;52.018;6.306;2023-05-07T04:45:51;104549.47;;;13.04;100.00
18900;BME280;9582;52.018;6.306;2023-05-07T04:48:20;104553.84;;;13.06;100.00
18900;BME280;9582;52.018;6.306;2023-05-07T04:50:49;104561.75;;;13.08;100.00
18900;BME280;9582;52.018;6.306;2023-05-07T04:53:17;104561.75;;;13.08;100.00
18900;BME280;9582;52.018;6.306;2023-05-07T04:55:44;104565.25;;;13.10;100.00
18900;BME280;9582;52.018;6.306;2023-05-07T04:58:11;104554.78;;;13.11;100.00
18900;BME280;9582;52.018;6.306;2023-05-07T05:00:42;104560.00;;;13.13;100.00
18900;BME280;9582;52.018;6.306;2023-05-07T05:03:09;104558.28;;;13.15;100.00
18900;BME280;9582;52.018;6.306;2023-05-07T05:05:39;104569.69;;;13.17;100.00
18900;BME280;9582;52.018;6.306;2023-05-07T05:08:06;104556.56;;;13.20;100.00
18900;BME280;9582;52.018;6.306;2023-05-07T05:10:35;104570.56;;;13.22;100.00
18900;BME280;9582;52.018;6.306;2023-05-07T05:13:02;104567.06;;;13.24;100.00
18900;BME280;9582;52.018;6.306;2023-05-07T05:15:29;104565.34;;;13.28;100.00
18900;BME280;9582;52.018;6.306;2023-05-07T05:17:56;104570.59;;;13.28;100.00
18900;BME280;9582;52.018;6.306;2023-05-07T05:20:23;104555.72;;;13.28;100.00
18900;BME280;9582;52.018;6.306;2023-05-07T05:22:51;104562.72;;;13.28;100.00
18900;BME280;9582;52.018;6.306;2023-05-07T05:25:18;104552.19;;;13.29;100.00
18900;BME280;9582;52.018;6.306;2023-05-07T05:27:45;104552.22;;;13.31;100.00
18900;BME280;9582;52.018;6.306;2023-05-07T05:30:12;104547.81;;;13.33;100.00
18900;BME280;9582;52.018;6.306;2023-05-07T05:32:40;104548.69;;;13.35;100.00
18900;BME280;9582;52.018;6.306;2023-05-07T05:35:08;104545.22;;;13.36;100.00
18900;BME280;9582;52.018;6.306;2023-05-07T05:37:35;104539.97;;;13.39;100.00
18900;BME280;9582;52.018;6.306;2023-05-07T05:40:06;104532.06;;;13.41;100.00
18900;BME280;9582;52.018;6.306;2023-05-07T05:42:33;104524.16;;;13.41;100.00
18900;BME280;9582;52.018;6.306;2023-05-07T05:45:00;104523.31;;;13.45;100.00
18900;BME280;9582;52.018;6.306;2023-05-07T05:47:29;104517.19;;;13.46;100.00
18900;BME280;9582;52.018;6.306;2023-05-07T05:49:56;104511.94;;;13.49;100.00
18900;BME280;9582;52.018;6.306;2023-05-07T05:52:22;104520.69;;;13.52;100.00
18900;BME280;9582;52.018;6.306;2023-05-07T05:54:50;104515.47;;;13.54;100.00
18900;BME280;9582;52.018;6.306;2023-05-07T05:57:19;104507.53;;;13.52;100.00
18900;BME280;9582;52.018;6.306;2023-05-07T05:59:46;104502.28;;;13.52;100.00
18900;BME280;9582;52.018;6.306;2023-05-07T06:02:13;104492.66;;;13.53;100.00
18900;BME280;9582;52.018;6.306;2023-05-07T06:04:40;104490.03;;;13.57;100.00
18900;BME280;9582;52.018;6.306;2023-05-07T06:07:08;104484.78;;;13.59;100.00
18900;BME280;9582;52.018;6.306;2023-05-07T06:09:35;104482.16;;;13.62;100.00
18900;BME280;9582;52.018;6.306;2023-05-07T06:12:02;104481.25;;;13.61;100.00
18900;BME280;9582;52.018;6.306;2023-05-07T06:14:31;104471.63;;;13.62;100.00
18900;BME280;9582;52.018;6.306;2023-05-07T06:16:58;104463.72;;;13.63;100.00
18900;BME280;9582;52.018;6.306;2023-05-07T06:19:25;104460.25;;;13.66;100.00
18900;BME280;9582;52.018;6.306;2023-05-07T06:21:54;104454.94;;;13.69;100.00
18900;BME280;9582;52.018;6.306;2023-05-07T06:24:25;104446.22;;;13.71;100.00
18900;BME280;9582;52.018;6.306;2023-05-07T06:26:52;104438.31;;;13.71;100.00
18900;BME280;9582;52.018;6.306;2023-05-07T06:29:19;104426.91;;;13.69;100.00
18900;BME280;9582;52.018;6.306;2023-05-07T06:31:48;104427.81;;;13.71;100.00
18900;BME280;9582;52.018;6.306;2023-05-07T06:34:15;104417.28;;;13.71;100.00
18900;BME280;9582;52.018;6.306;2023-05-07T06:36:41;104418.13;;;13.75;100.00
18900;BME280;9582;52.018;6.306;2023-05-07T06:39:20;104417.25;;;13.80;100.00
18900;BME280;9582;52.018;6.306;2023-05-07T06:41:47;104418.13;;;13.84;100.00
18900;BME280;9582;52.018;6.306;2023-05-07T06:44:24;104414.63;;;13.85;100.00
18900;BME280;9582;52.018;6.306;2023-05-07T06:47:02;104400.59;;;13.84;100.00
18900;BME280;9582;52.018;6.306;2023-05-07T06:49:28;104395.31;;;13.86;100.00
18900;BME280;9582;52.018;6.306;2023-05-07T06:51:55;104385.69;;;13.88;100.00
18900;BME280;9582;52.018;6.306;2023-05-07T06:54:22;104383.91;;;13.92;100.00
18900;BME280;9582;52.018;6.306;2023-05-07T06:56:48;104382.16;;;14.00;100.00
18900;BME280;9582;52.018;6.306;2023-05-07T06:59:16;104373.34;;;14.10;100.00
18900;BME280;9582;52.018;6.306;2023-05-07T07:01:44;104384.72;;;14.18;100.00
18900;BME280;9582;52.018;6.306;2023-05-07T07:04:13;104369.78;;;14.21;100.00
18900;BME280;9582;52.018;6.306;2023-05-07T07:06:41;104374.13;;;14.28;100.00
18900;BME280;9582;52.018;6.306;2023-05-07T07:09:11;104363.63;;;14.30;100.00
18900;BME280;9582;52.018;6.306;2023-05-07T07:11:38;104357.50;;;14.32;100.00
18900;BME280;9582;52.018;6.306;2023-05-07T07:14:05;104341.69;;;14.32;100.00
18900;BME280;9582;52.018;6.306;2023-05-07T07:16:36;104344.31;;;14.34;100.00
18900;BME280;9582;52.018;6.306;2023-05-07T07:19:02;104316.25;;;14.33;100.00
18900;BME280;9582;52.018;6.306;2023-05-07T07:21:30;104315.31;;;14.37;100.00
18900;BME280;9582;52.018;6.306;2023-05-07T07:23:57;104313.50;;;14.48;100.00
18900;BME280;9582;52.018;6.306;2023-05-07T07:26:25;104310.84;;;14.57;100.00
18900;BME280;9582;52.018;6.306;2023-05-07T07:28:51;104308.13;;;14.68;100.00
18900;BME280;9582;52.018;6.306;2023-05-07T07:31:20;104292.28;;;14.75;100.00
18900;BME280;9582;52.018;6.306;2023-05-07T07:33:49;104286.09;;;14.76;100.00
18900;BME280;9582;52.018;6.306;2023-05-07T07:36:16;104266.81;;;14.74;100.00
18900;BME280;9582;52.018;6.306;2023-05-07T07:38:44;104259.75;;;14.76;100.00
18900;BME280;9582;52.018;6.306;2023-05-07T07:41:11;104252.72;;;14.80;100.00
18900;BME280;9582;52.018;6.306;2023-05-07T07:43:37;104250.00;;;14.92;100.00
18900;BME280;9582;52.018;6.306;2023-05-07T07:46:04;104246.34;;;15.07;100.00
18900;BME280;9582;52.018;6.306;2023-05-07T07:48:33;104247.06;;;15.22;100.00
18900;BME280;9582;52.018;6.306;2023-05-07T07:51:00;104236.44;;;15.30;100.00
18900;BME280;9582;52.018;6.306;2023-05-07T07:53:27;104223.22;;;15.33;100.00
18900;BME280;9582;52.018;6.306;2023-05-07T07:55:55;104224.03;;;15.41;100.00
18900;BME280;9582;52.018;6.306;2023-05-07T07:58:25;104218.69;;;15.48;100.00
18900;BME280;9582;52.018;6.306;2023-05-07T08:00:52;104204.47;;;15.63;100.00
18900;BME280;9582;52.018;6.306;2023-05-07T08:03:21;104205.22;;;15.71;100.00
18900;BME280;9582;52.018;6.306;2023-05-07T08:05:51;104192.78;;;15.81;100.00
18900;BME280;9582;52.018;6.306;2023-05-07T08:08:18;104184.75;;;15.91;100.00
18900;BME280;9582;52.018;6.306;2023-05-07T08:10:45;104175.03;;;15.93;100.00
18900;BME280;9582;52.018;6.306;2023-05-07T08:13:20;104168.66;;;16.06;100.00
18900;BME280;9582;52.018;6.306;2023-05-07T08:15:47;104150.34;;;15.97;100.00
18900;BME280;9582;52.018;6.306;2023-05-07T08:18:14;104151.06;;;16.08;100.00
18900;BME280;9582;52.018;6.306;2023-05-07T08:20:41;104142.88;;;16.24;100.00
18900;BME280;9582;52.018;6.306;2023-05-07T08:23:13;104141.84;;;16.34;100.00
18900;BME280;9582;52.018;6.306;2023-05-07T08:25:40;104135.50;;;16.45;100.00
18900;BME280;9582;52.018;6.306;2023-05-07T08:28:08;104130.84;;;16.61;100.00
18900;BME280;9582;52.018;6.306;2023-05-07T08:30:37;104113.94;;;16.69;100.00
18900;BME280;9582;52.018;6.306;2023-05-07T08:33:04;104108.50;;;16.77;100.00
18900;BME280;9582;52.018;6.306;2023-05-07T08:35:31;104101.28;;;16.87;100.00
18900;BME280;9582;52.018;6.306;2023-05-07T08:37:58;104086.09;;;16.96;100.00
18900;BME280;9582;52.018;6.306;2023-05-07T08:40:26;104064.97;;;16.96;100.00
18900;BME280;9582;52.018;6.306;2023-05-07T08:42:55;104062.19;;;17.04;100.00
18900;BME280;9582;52.018;6.306;2023-05-07T08:45:22;104058.50;;;17.11;100.00
18900;BME280;9582;52.018;6.306;2023-05-07T08:47:58;104031.09;;;17.13;100.00
18900;BME280;9582;52.018;6.306;2023-05-07T08:50:29;104017.81;;;17.18;100.00
18900;BME280;9582;52.018;6.306;2023-05-07T08:52:57;104021.66;;;17.43;100.00
18900;BME280;9582;52.018;6.306;2023-05-07T08:55:24;103998.91;;;17.33;100.00
18900;BME280;9582;52.018;6.306;2023-05-07T08:57:50;104013.47;;;17.54;100.00
18900;BME280;9582;52.018;6.306;2023-05-07T09:00:18;104016.25;;;17.86;100.00
18900;BME280;9582;52.018;6.306;2023-05-07T09:02:48;103992.50;;;17.83;100.00
18900;BME280;9582;52.018;6.306;2023-05-07T09:05:17;103974.38;;;17.66;100.00
18900;BME280;9582;52.018;6.306;2023-05-07T09:07:44;103985.75;;;18.04;100.00
18900;BME280;9582;52.018;6.306;2023-05-07T09:10:13;103987.03;;;18.23;100.00
18900;BME280;9582;52.018;6.306;2023-05-07T09:12:41;103966.97;;;18.14;100.00
18900;BME280;9582;52.018;6.306;2023-05-07T09:15:10;103952.47;;;18.27;100.00
18900;BME280;9582;52.018;6.306;2023-05-07T09:17:38;103948.91;;;18.28;100.00
18900;BME280;9582;52.018;6.306;2023-05-07T09:20:07;103933.78;;;18.32;100.00
18900;BME280;9582;52.018;6.306;2023-05-07T09:22:36;103940.94;;;18.61;100.00
18900;BME280;9582;52.018;6.306;2023-05-07T09:25:07;103918.22;;;18.52;100.00
18900;BME280;9582;52.018;6.306;2023-05-07T09:27:35;103911.69;;;18.64;100.00
18900;BME280;9582;52.018;6.306;2023-05-07T09:30:03;103918.97;;;18.86;100.00
18900;BME280;9582;52.018;6.306;2023-05-07T09:32:34;103907.38;;;18.89;100.00
18900;BME280;9582;52.018;6.306;2023-05-07T09:35:01;103899.59;;;18.84;100.00
18900;BME280;9582;52.018;6.306;2023-05-07T09:37:30;103884.56;;;18.83;100.00
18900;BME280;9582;52.018;6.306;2023-05-07T09:39:58;103887.00;;;18.91;100.00
18900;BME280;9582;52.018;6.306;2023-05-07T09:42:27;103877.94;;;18.98;100.00
18900;BME280;9582;52.018;6.306;2023-05-07T09:44:59;103864.56;;;19.01;100.00
18900;BME280;9582;52.018;6.306;2023-05-07T09:47:32;103882.16;;;19.31;100.00
18900;BME280;9582;52.018;6.306;2023-05-07T09:49:59;103864.81;;;19.21;100.00
18900;BME280;9582;52.018;6.306;2023-05-07T09:52:28;103839.06;;;18.97;100.00
18900;BME280;9582;52.018;6.306;2023-05-07T09:55:01;103822.34;;;18.95;100.00
18900;BME280;9582;52.018;6.306;2023-05-07T09:57:30;103825.75;;;18.98;100.00
18900;BME280;9582;52.018;6.306;2023-05-07T10:00:02;103828.16;;;19.06;100.00
18900;BME280;9582;52.018;6.306;2023-05-07T10:02:35;103832.75;;;19.27;100.00
18900;BME280;9582;52.018;6.306;2023-05-07T10:05:03;103841.44;;;19.32;100.00
18900;BME280;9582;52.018;6.306;2023-05-07T10:07:32;103835.56;;;18.96;100.00
18900;BME280;9582;52.018;6.306;2023-05-07T10:10:07;103833.97;;;18.91;100.00
18900;BME280;9582;52.018;6.306;2023-05-07T10:12:40;103844.44;;;18.94;100.00
18900;BME280;9582;52.018;6.306;2023-05-07T10:15:12;103851.31;;;19.01;100.00
18900;BME280;9582;52.018;6.306;2023-05-07T10:17:42;103867.13;;;19.04;100.00
18900;BME280;9582;52.018;6.306;2023-05-07T10:20:10;103875.34;;;19.23;100.00
18900;BME280;9582;52.018;6.306;2023-05-07T10:22:41;103871.88;;;19.21;100.00
18900;BME280;9582;52.018;6.306;2023-05-07T10:25:14;103879.03;;;19.19;100.00
18900;BME280;9582;52.018;6.306;2023-05-07T10:27:43;103870.34;;;19.14;100.00
18900;BME280;9582;52.018;6.306;2023-05-07T10:30:17;103875.41;;;19.21;100.00
18900;BME280;9582;52.018;6.306;2023-05-07T10:32:52;103891.22;;;19.52;100.00
18900;BME280;9582;52.018;6.306;2023-05-07T10:35:29;103884.56;;;19.65;100.00
18900;BME280;9582;52.018;6.306;2023-05-07T10:37:59;103879.22;;;19.67;100.00
18900;BME280;9582;52.018;6.306;2023-05-07T10:40:31;103871.75;;;19.78;100.00
18900;BME280;9582;52.018;6.306;2023-05-07T10:43:00;103851.44;;;19.50;100.00
18900;BME280;9582;52.018;6.306;2023-05-07T10:45:32;103851.03;;;19.63;100.00
18900;BME280;9582;52.018;6.306;2023-05-07T10:48:05;103850.72;;;19.72;100.00
18900;BME280;9582;52.018;6.306;2023-05-07T10:50:32;103840.41;;;19.63;100.00
18900;BME280;9582;52.018;6.306;2023-05-07T10:53:24;103851.31;;;19.80;100.00
18900;BME280;9582;52.018;6.306;2023-05-07T10:56:27;103838.34;;;19.71;100.00
18900;BME280;9582;52.018;6.306;2023-05-07T10:59:34;103829.63;;;19.92;100.00
18900;BME280;9582;52.018;6.306;2023-05-07T11:02:14;103843.44;;;20.26;100.00
18900;BME280;9582;52.018;6.306;2023-05-07T11:05:18;103844.91;;;20.33;100.00
18900;BME280;9582;52.018;6.306;2023-05-07T11:07:54;103822.50;;;20.15;100.00
18900;BME280;9582;52.018;6.306;2023-05-07T11:10:22;103825.06;;;20.18;100.00
18900;BME280;9582;52.018;6.306;2023-05-07T11:12:57;103817.50;;;20.08;100.00
18900;BME280;9582;52.018;6.306;2023-05-07T11:15:41;103805.47;;;20.21;100.00
18900;BME280;9582;52.018;6.306;2023-05-07T11:18:18;103819.97;;;20.37;100.00
18900;BME280;9582;52.018;6.306;2023-05-07T11:20:51;103798.75;;;20.36;100.00
18900;BME280;9582;52.018;6.306;2023-05-07T11:26:47;103786.66;;;20.50;100.00
18900;BME280;9582;52.018;6.306;2023-05-07T11:29:17;103793.28;;;20.84;100.00
18900;BME280;9582;52.018;6.306;2023-05-07T11:31:48;103799.72;;;21.00;100.00
18900;BME280;9582;52.018;6.306;2023-05-07T11:34:21;103790.66;;;21.04;100.00
18900;BME280;9582;52.018;6.306;2023-05-07T11:36:48;103797.34;;;20.92;100.00
18900;BME280;9582;52.018;6.306;2023-05-07T11:39:24;103783.56;;;20.83;100.00
18900;BME280;9582;52.018;6.306;2023-05-07T11:41:51;103796.34;;;20.95;100.00
18900;BME280;9582;52.018;6.306;2023-05-07T11:44:19;103799.44;;;21.06;100.00
18900;BME280;9582;52.018;6.306;2023-05-07T11:46:45;103790.94;;;21.19;100.00
18900;BME280;9582;52.018;6.306;2023-05-07T11:49:12;103771.34;;;21.20;100.00
18900;BME280;9582;52.018;6.306;2023-05-07T11:51:39;103740.72;;;20.89;100.00
18900;BME280;9582;52.018;6.306;2023-05-07T11:54:06;103752.47;;;21.05;100.00
18900;BME280;9582;52.018;6.306;2023-05-07T11:56:34;103756.25;;;21.21;100.00
18900;BME280;9582;52.018;6.306;2023-05-07T11:59:00;103731.44;;;20.99;100.00
18900;BME280;9582;52.018;6.306;2023-05-07T12:01:29;103732.44;;;20.96;100.00
18900;BME280;9582;52.018;6.306;2023-05-07T12:03:55;103756.47;;;21.16;100.00
18900;BME280;9582;52.018;6.306;2023-05-07T12:06:22;103768.78;;;21.39;100.00
18900;BME280;9582;52.018;6.306;2023-05-07T12:08:49;103744.72;;;21.20;100.00
18900;BME280;9582;52.018;6.306;2023-05-07T12:11:22;103744.00;;;21.17;100.00
18900;BME280;9582;52.018;6.306;2023-05-07T12:13:48;103726.75;;;21.25;100.00
18900;BME280;9582;52.018;6.306;2023-05-07T12:16:15;103734.47;;;21.52;100.00
18900;BME280;9582;52.018;6.306;2023-05-07T12:18:44;103741.56;;;21.71;100.00
18900;BME280;9582;52.018;6.306;2023-05-07T12:21:10;103722.22;;;21.86;100.00
18900;BME280;9582;52.018;6.306;2023-05-07T12:23:38;103702.09;;;21.79;100.00
18900;BME280;9582;52.018;6.306;2023-05-07T12:26:04;103665.22;;;21.52;100.00
18900;BME280;9582;52.018;6.306;2023-05-07T12:28:36;103680.06;;;21.57;100.00
18900;BME280;9582;52.018;6.306;2023-05-07T12:31:04;103658.34;;;21.48;100.00
18900;BME280;9582;52.018;6.306;2023-05-07T12:33:31;103627.22;;;21.48;100.00
18900;BME280;9582;52.018;6.306;2023-05-07T12:36:03;103627.34;;;21.45;100.00
18900;BME280;9582;52.018;6.306;2023-05-07T12:38:34;103644.25;;;21.64;100.00
18900;BME280;9582;52.018;6.306;2023-05-07T12:41:01;103651.28;;;21.84;100.00
18900;BME280;9582;52.018;6.306;2023-05-07T12:43:28;103646.41;;;21.56;100.00
18900;BME280;9582;52.018;6.306;2023-05-07T12:45:56;103618.31;;;21.31;100.00
18900;BME280;9582;52.018;6.306;2023-05-07T12:48:23;103611.31;;;21.28;100.00
18900;BME280;9582;52.018;6.306;2023-05-07T12:50:53;103613.97;;;21.28;100.00
18900;BME280;9582;52.018;6.306;2023-05-07T12:53:22;103620.75;;;21.35;100.00
18900;BME280;9582;52.018;6.306;2023-05-07T12:55:51;103629.59;;;21.54;100.00
18900;BME280;9582;52.018;6.306;2023-05-07T12:58:19;103614.72;;;21.50;100.00
18900;BME280;9582;52.018;6.306;2023-05-07T13:00:48;103577.50;;;21.30;100.00